Latest Weather Observations for Canterbury

IDN60901

Issued at 9:51 pm EST Tuesday 28 April 2015 (issued every 10 minutes, with the page automatically refreshed every 10 minutes)

About weather observations | Map of Sydney area stations | Latest observations for Sydney area | Other Formats
Station Details ID: 066194 Name: CANTERBURY RACECOURSE AWS Lat: -33.91 Lon: 151.11 Height: 3.0 m
Data from the previous 72 hours. | See also: Recent months at Canterbury
Date/Time
EST
Tmp

°C
App
Tmp
°C
Dew
Point
°C
Rel
Hum
%
Delta-T

°C
Wind Press
QNH
hPa
Press
MSL
hPa
Rain
since
9 am
mm
Dir
 
Spd
km/h
Gust
km/h
Spd
kts
Gust
kts
28/09:30pm 10.2 9.6 7.6 84 1.2 CALM 0 0 0 0 - - 0.0
28/09:00pm 10.8 10.3 7.9 82 1.4 CALM 0 0 0 0 - - 0.0
28/08:30pm 11.8 11.4 8.1 78 1.8 CALM 0 0 0 0 - - 0.0
28/08:00pm 13.8 12.1 7.6 66 3.0 SSE 6 7 3 4 - - 0.0
28/07:30pm 14.6 12.9 8.3 66 3.2 SSE 7 11 4 6 - - 0.0
28/07:00pm 15.0 12.5 8.0 63 3.5 SSE 11 17 6 9 - - 0.0
28/06:30pm 15.0 13.0 8.5 65 3.3 SSE 9 13 5 7 - - 0.0
28/06:00pm 15.2 12.7 8.2 63 3.5 SSE 11 15 6 8 - - 0.0
28/05:30pm 15.5 12.6 8.3 62 3.6 SSE 13 20 7 11 - - 0.0
28/05:00pm 16.0 12.4 8.2 60 3.9 SSE 17 28 9 15 - - 0.0
28/04:30pm 16.5 12.4 7.7 56 4.4 SE 19 28 10 15 - - 0.0
28/04:00pm 17.0 13.2 7.4 53 4.8 SSE 17 26 9 14 - - 0.0
28/03:30pm 17.1 12.8 6.9 51 5.1 SSE 19 28 10 15 - - 0.0
28/03:00pm 17.3 12.8 7.1 51 5.1 SSE 20 30 11 16 - - 0.0
28/02:30pm 17.4 13.1 7.7 53 4.9 SSE 20 30 11 16 - - 0.0
28/02:00pm 17.5 13.0 7.0 50 5.2 SSE 20 30 11 16 - - 0.0
28/01:30pm 17.7 13.4 7.7 52 5.1 SSE 20 32 11 17 - - 0.0
28/01:00pm 17.7 13.3 7.2 50 5.3 SSE 20 30 11 16 - - 0.0
28/12:30pm 17.9 13.6 7.0 49 5.4 SE 19 26 10 14 - - 0.0
28/12:00pm 17.9 13.5 6.4 47 5.7 SSE 19 24 10 13 - - 0.0
28/11:30am 17.6 13.7 7.1 50 5.2 S 17 24 9 13 - - 0.0
28/11:00am 17.5 13.9 8.4 55 4.7 SSE 17 24 9 13 - - 0.0
28/10:30am 17.0 15.0 7.1 52 4.9 S 7 13 4 7 - - 0.0
28/10:00am 15.6 13.2 7.1 57 4.2 SSW 9 13 5 7 - - 0.0
28/09:30am 14.5 12.4 6.6 59 3.8 W 7 13 4 7 - - 0.0
28/09:00am 13.2 10.8 6.8 65 3.1 W 9 13 5 7 - - 0.4
28/08:30am 11.6 9.4 6.1 69 2.6 WNW 7 13 4 7 - - 0.4
28/08:00am 10.7 8.4 5.7 71 2.3 NW 7 13 4 7 - - 0.4
28/07:30am 9.8 8.1 6.0 77 1.7 NW 4 9 2 5 - - 0.4
28/07:00am 8.3 6.2 5.6 83 1.2 WNW 6 11 3 6 - - 0.4
28/06:30am 7.7 5.5 5.2 84 1.1 WNW 6 9 3 5 - - 0.4
28/06:00am 8.2 6.0 5.1 81 1.4 W 6 9 3 5 - - 0.4
28/05:30am 8.5 6.6 5.1 79 1.5 W 4 7 2 4 - - 0.4
28/05:00am 8.9 6.6 5.5 79 1.5 WNW 7 11 4 6 - - 0.4
28/04:30am 9.3 7.0 5.5 77 1.7 WNW 7 11 4 6 - - 0.4
28/04:00am 9.4 7.3 5.6 77 1.7 WNW 6 15 3 8 - - 0.4
28/03:30am 9.6 7.3 5.8 77 1.7 WNW 7 13 4 7 - - 0.4
28/03:00am 9.4 7.3 5.9 79 1.6 WNW 6 7 3 4 - - 0.4
28/02:30am 9.1 7.4 5.7 79 1.5 N 4 6 2 3 - - 0.4
28/02:00am 9.5 7.5 6.2 80 1.5 NNW 6 7 3 4 - - 0.4
28/01:30am 8.8 6.6 5.2 78 1.6 NNW 6 9 3 5 - - 0.4
28/01:00am 10.4 7.8 6.0 74 2.0 W 9 13 5 7 - - 0.4
28/12:30am 10.1 8.5 6.3 77 1.8 WNW 4 9 2 5 - - 0.4
28/12:00am 10.2 8.3 6.5 78 1.7 W 6 9 3 5 - - 0.4
 
Date/Time
EST
Tmp

°C
App
Tmp
°C
Dew
Point
°C
Rel
Hum
%
Delta-T

°C
Wind Press
QNH
hPa
Press
MSL
hPa
Rain
since
9 am
mm
Dir
 
Spd
km/h
Gust
km/h
Spd
kts
Gust
kts
27/11:30pm 9.8 8.9 6.2 78 1.7 CALM 0 0 0 0 - - 0.4
27/11:00pm 10.7 9.9 6.3 74 2.1 CALM 0 0 0 0 - - 0.4
27/10:30pm 11.4 9.5 6.7 73 2.2 NW 6 7 3 4 - - 0.4
27/10:00pm 11.7 10.2 6.8 72 2.3 WNW 4 7 2 4 - - 0.4
27/09:30pm 12.1 10.3 7.2 72 2.4 W 6 7 3 4 - - 0.4
27/09:00pm 11.9 10.2 7.4 74 2.2 WNW 6 7 3 4 - - 0.4
27/08:30pm 12.0 10.3 7.5 74 2.2 WNW 6 9 3 5 - - 0.4
27/08:00pm 11.3 10.3 7.4 77 1.9 S 2 7 1 4 - - 0.4
27/07:30pm 12.0 11.2 6.3 68 2.7 CALM 0 2 0 1 - - 0.4
27/07:00pm 13.7 11.7 7.0 64 3.3 SSE 7 9 4 5 - - 0.4
27/06:30pm 13.8 11.8 7.1 64 3.3 SSE 7 11 4 6 - - 0.4
27/06:00pm 14.2 12.1 6.8 61 3.6 SSE 7 9 4 5 - - 0.4
27/05:30pm 14.9 12.0 6.5 57 4.1 SSE 11 17 6 9 - - 0.4
27/05:00pm 15.5 11.7 6.0 53 4.6 SSE 15 24 8 13 - - 0.4
27/04:30pm 16.1 12.1 6.5 53 4.7 SSE 17 28 9 15 - - 0.4
27/04:00pm 16.4 11.7 6.0 50 5.0 SSE 20 32 11 17 - - 0.4
27/03:30pm 16.6 11.8 5.6 48 5.3 SSE 20 30 11 16 - - 0.4
27/03:00pm 17.5 14.3 6.7 49 5.3 S 13 20 7 11 - - 0.0
27/02:30pm 17.5 13.0 6.1 47 5.6 SE 19 24 10 13 - - 0.0
27/02:00pm 17.5 13.2 5.1 44 5.9 SSE 17 24 9 13 - - 0.0
27/01:30pm 17.7 13.3 5.0 43 6.1 SSE 17 26 9 14 - - 0.0
27/01:00pm 17.8 13.0 4.7 42 6.2 S 19 30 10 16 - - 0.0
27/12:30pm 18.3 15.2 5.5 43 6.2 SW 11 20 6 11 - - 0.0
27/12:00pm 17.1 13.8 4.4 43 6.0 S 11 24 6 13 - - 0.0
27/11:30am 17.6 14.5 5.5 45 5.9 SW 11 20 6 11 - - 0.0
27/11:00am 16.7 13.5 5.0 46 5.6 SW 11 20 6 11 - - 0.0
27/10:30am 16.4 13.6 7.1 54 4.6 SW 11 20 6 11 - - 0.0
27/10:00am 15.5 11.8 6.5 55 4.4 WSW 15 22 8 12 - - 0.0
27/09:30am 14.7 10.3 6.5 58 4.0 WSW 19 24 10 13 - - 0.0
27/09:00am 14.1 10.1 6.7 61 3.6 WSW 17 28 9 15 - - 1.4
27/08:30am 13.5 10.4 7.3 66 3.0 WSW 13 19 7 10 - - 1.4
27/08:00am 12.6 9.1 7.1 69 2.7 WSW 15 20 8 11 - - 1.4
27/07:30am 11.1 9.2 7.6 79 1.7 WSW 7 11 4 6 - - 1.4
27/07:00am 8.9 7.1 7.0 88 0.9 W 6 9 3 5 - - 1.4
27/06:30am 9.2 7.3 6.8 85 1.1 WSW 6 9 3 5 - - 1.4
27/06:00am 9.9 8.0 6.8 81 1.5 WSW 6 9 3 5 - - 1.4
27/05:30am 10.0 8.0 7.3 83 1.3 WSW 7 15 4 8 - - 1.4
27/05:00am 9.6 7.3 7.4 86 1.0 WSW 9 13 5 7 - - 1.4
27/04:30am 9.8 8.0 7.1 83 1.3 WSW 6 7 3 4 - - 1.4
27/04:00am 11.4 9.5 7.5 77 1.9 WSW 7 13 4 7 - - 1.4
27/03:30am 12.0 9.9 8.1 77 1.9 WSW 9 13 5 7 - - 1.4
27/03:00am 12.6 10.5 8.3 75 2.1 SW 9 15 5 8 - - 1.4
27/02:30am 11.9 10.4 9.3 84 1.3 WSW 7 11 4 6 - - 1.4
27/02:00am 12.1 11.8 10.0 87 1.1 WSW 2 7 1 4 - - 1.4
27/01:30am 12.4 11.8 10.3 87 1.1 WSW 4 7 2 4 - - 1.4
27/01:00am 12.6 12.1 10.7 88 1.0 WSW 4 7 2 4 - - 1.4
27/12:30am 12.4 12.7 10.8 90 0.8 CALM 0 0 0 0 - - 1.4
27/12:00am 12.2 12.4 10.4 89 0.9 CALM 0 0 0 0 - - 1.4
 
Date/Time
EST
Tmp

°C
App
Tmp
°C
Dew
Point
°C
Rel
Hum
%
Delta-T

°C
Wind Press
QNH
hPa
Press
MSL
hPa
Rain
since
9 am
mm
Dir
 
Spd
km/h
Gust
km/h
Spd
kts
Gust
kts
26/11:30pm 12.2 12.4 10.4 89 0.9 CALM 0 0 0 0 - - 1.4
26/11:00pm 11.9 12.1 10.5 91 0.7 CALM 0 6 0 3 - - 1.4
26/10:30pm 11.2 11.2 9.9 92 0.7 CALM 0 0 0 0 - - 1.4
26/10:00pm 10.8 10.6 9.2 90 0.8 CALM 0 0 0 0 - - 1.4
26/09:30pm 11.0 10.8 8.9 87 1.0 CALM 0 0 0 0 - - 1.4
26/09:00pm 12.4 12.0 8.1 75 2.1 CALM 0 0 0 0 - - 1.4
26/08:30pm 13.7 12.2 9.0 73 2.4 SW 7 11 4 6 - - 1.4
26/08:00pm 14.9 13.1 9.5 70 2.8 SSW 9 13 5 7 - - 1.4
26/07:30pm 15.4 13.2 9.3 67 3.1 SSW 11 15 6 8 - - 1.4
26/07:00pm 15.3 13.1 9.2 67 3.1 S 11 17 6 9 - - 1.4
26/06:30pm 15.5 12.1 9.0 65 3.3 SSW 17 26 9 14 - - 1.4
26/06:00pm 15.8 12.6 8.5 62 3.7 SSW 15 22 8 12 - - 1.4
26/05:30pm 16.4 13.6 8.4 59 4.1 SW 13 26 7 14 - - 1.4
26/05:00pm 16.9 15.4 9.3 61 3.9 SW 7 13 4 7 - - 1.4
26/04:30pm 16.8 14.7 9.7 63 3.7 SW 11 19 6 10 - - 1.4
26/04:00pm 16.6 13.7 9.5 63 3.7 SW 15 26 8 14 - - 1.4
26/03:30pm 16.4 13.2 10.0 66 3.4 SSW 17 30 9 16 - - 1.4
26/03:00pm 16.4 13.8 10.7 69 3.0 SSW 15 20 8 11 - - 1.4
26/02:30pm 15.5 12.9 10.7 73 2.5 SW 15 24 8 13 - - 1.4
26/02:00pm 14.6 12.5 11.0 79 1.9 SSW 13 19 7 10 - - 1.4
26/01:30pm 15.2 12.1 10.2 72 2.6 SSW 17 28 9 15 - - 0.8
26/01:00pm 15.6 11.9 9.5 67 3.2 SSW 19 32 10 17 - - 0.6
26/12:30pm 15.9 11.1 8.9 63 3.6 SW 24 39 13 21 - - 0.4
26/12:00pm 15.7 11.9 8.9 64 3.5 WSW 19 32 10 17 - - 0.4
26/11:30am 15.1 11.2 9.5 69 2.9 WSW 20 37 11 20 - - 0.4
26/11:00am 15.0 11.6 9.1 68 3.0 WSW 17 32 9 17 - - 0.4
26/10:30am 14.2 10.8 9.0 71 2.6 W 17 28 9 15 - - 0.4
26/10:00am 13.3 11.7 10.1 81 1.7 W 9 15 5 8 - - 0.4
26/09:30am 13.0 10.5 9.6 80 1.7 W 13 19 7 10 - - 0.4
26/09:00am 12.9 10.5 8.8 76 2.1 W 11 19 6 10 - - 32.4
26/08:30am 12.6 9.8 8.7 77 1.9 W 13 20 7 11 - - 32.4
26/08:00am 12.5 9.3 8.4 76 2.0 W 15 20 8 11 - - 32.4
26/07:30am 11.7 9.4 9.1 84 1.3 W 11 17 6 9 - - 32.4
26/07:00am 10.6 9.2 9.4 92 0.6 W 7 9 4 5 - - 32.4
26/06:30am 10.5 10.2 8.8 89 0.8 CALM 0 0 0 0 - - 32.4
26/06:00am 11.0 9.6 8.8 86 1.1 W 6 7 3 4 - - 32.4
26/05:30am 11.5 8.7 8.7 83 1.4 WSW 13 17 7 9 - - 32.4
26/05:00am 11.8 9.1 9.0 83 1.4 WSW 13 24 7 13 - - 32.4
26/04:30am 11.6 9.9 9.9 89 0.9 WNW 9 17 5 9 - - 32.4
26/04:00am 11.7 10.1 10.1 90 0.8 W 9 11 5 6 - - 32.4
26/03:30am 12.0 10.3 9.9 87 1.1 NW 9 11 5 6 - - 32.4
26/03:00am 12.2 10.6 10.3 88 1.0 SSE 9 17 5 9 - - 32.4
26/02:30am 12.0 10.5 10.7 92 0.7 S 9 17 5 9 - - 32.4
26/02:06am 11.9 10.6 10.1 89 0.9 NW 7 11 4 6 - - 32.4
26/02:00am 12.0 10.7 10.1 88 1.0 NNW 7 11 4 6 - - 32.4
26/01:43am 12.3 9.5 10.0 86 1.2 NW 15 22 8 12 - - 32.0
26/01:30am 12.4 9.4 10.5 88 1.0 NNW 17 28 9 15 - - 31.8
26/01:00am 11.8 10.7 10.5 92 0.7 W 7 9 4 5 - - 31.8
26/12:30am 11.7 9.5 10.8 94 0.5 WNW 13 22 7 12 - - 31.8
26/12:00am 11.2 10.0 10.4 95 0.4 WNW 7 11 4 6 - - 31.8
 
Date/Time
EST
Tmp

°C
App
Tmp
°C
Dew
Point
°C
Rel
Hum
%
Delta-T

°C
Wind Press
QNH
hPa
Press
MSL
hPa
Rain
since
9 am
mm
Dir
 
Spd
km/h
Gust
km/h
Spd
kts
Gust
kts
25/11:30pm 11.4 10.5 10.5 94 0.5 WSW 6 9 3 5 - - 31.8
25/11:00pm 11.8 10.8 10.4 91 0.7 WSW 6 7 3 4 - - 31.8
25/10:30pm 12.3 10.8 10.4 88 1.0 S 9 17 5 9 - - 31.8
25/10:00pm 12.8 11.9 10.7 87 1.1 WSW 6 7 3 4 - - 31.8
25/09:54pm 12.8 11.6 10.3 85 1.3 WSW 7 13 4 7 - - 31.8

Latest Capital City Observations: Canberra | Sydney | Melbourne | Brisbane | Adelaide | Perth | Hobart | Darwin

Other Formats:

Comma delimited format used in spreadsheet applications
http://www.bom.gov.au/fwo/IDN60901/IDN60901.94766.axf

JavaScript Object Notation format (JSON) in row-major order
http://www.bom.gov.au/fwo/IDN60901/IDN60901.94766.json